createdAt,value
2018-02-22T00:00:25.182Z,1019.30
2018-02-22T00:01:25.194Z,1019.30
2018-02-22T00:02:25.206Z,1019.32
2018-02-22T00:03:25.279Z,1019.36
2018-02-22T00:04:25.234Z,1019.33
2018-02-22T00:05:25.245Z,1019.36
2018-02-22T00:06:25.258Z,1019.33
2018-02-22T00:07:25.271Z,1019.34
2018-02-22T00:08:25.284Z,1019.35
2018-02-22T00:09:25.297Z,1019.34
2018-02-22T00:10:25.311Z,1019.32
2018-02-22T00:11:25.323Z,1019.32
2018-02-22T00:12:25.336Z,1019.32
2018-02-22T00:13:25.348Z,1019.32
2018-02-22T00:14:25.361Z,1019.28
2018-02-22T00:15:25.375Z,1019.30
2018-02-22T00:16:25.388Z,1019.26
2018-02-22T00:17:25.400Z,1019.28
2018-02-22T00:18:25.413Z,1019.29
2018-02-22T00:19:25.426Z,1019.26
2018-02-22T00:20:25.439Z,1019.30
2018-02-22T00:21:25.451Z,1019.24
2018-02-22T00:22:25.467Z,1019.23
2018-02-22T00:23:25.477Z,1019.27
2018-02-22T00:24:25.491Z,1019.28
2018-02-22T00:25:25.503Z,1019.25
2018-02-22T00:26:25.516Z,1019.25
2018-02-22T00:27:25.529Z,1019.19
2018-02-22T00:28:25.543Z,1019.21
2018-02-22T00:29:25.558Z,1019.17
2018-02-22T00:30:25.567Z,1019.16
2018-02-22T00:31:25.581Z,1019.16
2018-02-22T00:32:25.594Z,1019.19
2018-02-22T00:33:25.606Z,1019.18
2018-02-22T00:34:25.618Z,1019.13
2018-02-22T00:35:25.632Z,1019.10
2018-02-22T00:36:25.646Z,1019.10
2018-02-22T00:37:25.658Z,1019.14
2018-02-22T00:38:25.670Z,1019.15
2018-02-22T00:39:25.684Z,1019.14
2018-02-22T00:40:25.697Z,1019.14
2018-02-22T00:41:25.709Z,1019.18
2018-02-22T00:42:25.721Z,1019.13
2018-02-22T00:43:25.735Z,1019.16
2018-02-22T00:44:25.750Z,1019.15
2018-02-22T00:45:25.760Z,1019.12
2018-02-22T00:46:25.773Z,1019.14
2018-02-22T00:47:25.786Z,1019.18
2018-02-22T00:48:25.800Z,1019.14
2018-02-22T00:49:25.811Z,1019.17
2018-02-22T00:50:25.824Z,1019.19
2018-02-22T00:51:25.837Z,1019.18
2018-02-22T00:52:25.850Z,1019.18
2018-02-22T00:53:25.865Z,1019.17
2018-02-22T00:54:25.876Z,1019.15
2018-02-22T00:55:25.889Z,1019.14
2018-02-22T00:56:25.901Z,1019.18
2018-02-22T00:57:25.913Z,1019.15
2018-02-22T00:58:25.926Z,1019.13
2018-02-22T00:59:25.940Z,1019.12
2018-02-22T01:00:25.952Z,1019.11
2018-02-22T01:01:25.965Z,1019.11
2018-02-22T01:02:25.983Z,1019.09
2018-02-22T01:03:25.991Z,1019.08
2018-02-22T01:04:26.004Z,1019.10
2018-02-22T01:05:26.017Z,1019.08
2018-02-22T01:06:26.029Z,1019.09
2018-02-22T01:07:26.042Z,1019.05
2018-02-22T01:08:26.055Z,1019.11
2018-02-22T01:09:26.068Z,1019.07
2018-02-22T01:10:26.081Z,1019.09
2018-02-22T01:11:26.096Z,1019.08
2018-02-22T01:12:26.107Z,1019.09
2018-02-22T01:13:26.118Z,1019.11
2018-02-22T01:14:26.132Z,1019.06
2018-02-22T01:15:26.145Z,1019.07
2018-02-22T01:16:26.159Z,1019.09
2018-02-22T01:17:26.171Z,1019.06
2018-02-22T01:18:26.183Z,1019.05
2018-02-22T01:19:26.198Z,1019.06
2018-02-22T01:20:26.209Z,1019.06
2018-02-22T01:21:26.221Z,1019.06
2018-02-22T01:22:26.235Z,1019.05
2018-02-22T01:23:26.249Z,1019.06
2018-02-22T01:24:26.259Z,1019.06
2018-02-22T01:25:26.272Z,1019.08
2018-02-22T01:26:26.286Z,1019.08
2018-02-22T01:27:26.303Z,1019.07
2018-02-22T01:28:26.312Z,1019.07
2018-02-22T01:29:26.324Z,1019.06
2018-02-22T01:30:26.337Z,1019.08
2018-02-22T01:31:26.349Z,1019.10
2018-02-22T01:32:26.364Z,1019.08
2018-02-22T01:33:26.376Z,1019.11
2018-02-22T01:34:26.388Z,1019.07
2018-02-22T01:35:26.402Z,1019.08
2018-02-22T01:36:26.415Z,1019.05
2018-02-22T01:37:26.427Z,1019.10
2018-02-22T01:38:26.440Z,1019.07
2018-02-22T01:39:26.453Z,1019.06
2018-02-22T01:40:26.468Z,1019.13
2018-02-22T01:41:26.482Z,1019.06
2018-02-22T01:42:26.491Z,1019.08
2018-02-22T01:43:26.504Z,1019.05
2018-02-22T01:44:26.521Z,1019.05
2018-02-22T01:45:26.529Z,1019.00
2018-02-22T01:46:26.542Z,1018.99
2018-02-22T01:47:26.557Z,1019.02
2018-02-22T01:48:26.568Z,1018.97
2018-02-22T01:49:26.581Z,1018.98
2018-02-22T01:50:26.593Z,1019.02
2018-02-22T01:51:26.605Z,1018.99
2018-02-22T01:52:26.618Z,1018.94
2018-02-22T01:53:26.630Z,1019.00
2018-02-22T01:54:26.643Z,1019.02
2018-02-22T01:55:26.656Z,1018.96
2018-02-22T01:56:26.670Z,1018.97
2018-02-22T01:57:26.681Z,1018.96
2018-02-22T01:58:26.695Z,1018.97
2018-02-22T01:59:26.711Z,1018.95
2018-02-22T02:00:26.720Z,1018.96
2018-02-22T02:01:26.734Z,1018.98
2018-02-22T02:02:26.750Z,1018.91
2018-02-22T02:03:26.758Z,1018.92
2018-02-22T02:04:26.771Z,1018.91
2018-02-22T02:05:26.783Z,1018.93
2018-02-22T02:06:26.796Z,1018.94
2018-02-22T02:07:26.809Z,1018.90
2018-02-22T02:08:26.822Z,1018.94
2018-02-22T02:09:26.834Z,1018.89
2018-02-22T02:10:26.847Z,1018.89
2018-02-22T02:11:26.858Z,1018.87
2018-02-22T02:12:26.873Z,1018.83
2018-02-22T02:13:26.885Z,1018.84
2018-02-22T02:14:26.897Z,1018.85
2018-02-22T02:15:26.910Z,1018.85
2018-02-22T02:16:26.923Z,1018.90
2018-02-22T02:17:26.934Z,1018.83
2018-02-22T02:18:26.949Z,1018.86
2018-02-22T02:19:26.961Z,1018.85
2018-02-22T02:20:26.973Z,1018.83
2018-02-22T02:21:26.985Z,1018.86
2018-02-22T02:22:26.998Z,1018.86
2018-02-22T02:23:27.011Z,1018.80
2018-02-22T02:24:27.024Z,1018.86
2018-02-22T02:25:27.034Z,1018.81
2018-02-22T02:26:27.048Z,1018.85
2018-02-22T02:27:27.061Z,1018.84
2018-02-22T02:28:27.074Z,1018.85
2018-02-22T02:29:27.086Z,1018.84
2018-02-22T02:30:27.101Z,1018.81
2018-02-22T02:31:27.112Z,1018.82
2018-02-22T02:32:27.123Z,1018.79
2018-02-22T02:33:27.137Z,1018.87
2018-02-22T02:34:27.150Z,1018.86
2018-02-22T02:35:27.161Z,1018.83
2018-02-22T02:36:27.175Z,1018.82
2018-02-22T02:37:27.187Z,1018.85
2018-02-22T02:38:27.202Z,1018.81
2018-02-22T02:39:27.214Z,1018.79
2018-02-22T02:40:27.225Z,1018.81
2018-02-22T02:41:27.236Z,1018.78
2018-02-22T02:42:27.249Z,1018.78
2018-02-22T02:43:27.263Z,1018.75
2018-02-22T02:44:27.274Z,1018.82
2018-02-22T02:45:27.287Z,1018.81
2018-02-22T02:46:27.302Z,1018.81
2018-02-22T02:47:27.313Z,1018.81
2018-02-22T02:48:27.331Z,1018.84
2018-02-22T02:49:27.337Z,1018.87
2018-02-22T02:50:27.350Z,1018.87
2018-02-22T02:51:27.363Z,1018.86
2018-02-22T02:52:27.377Z,1018.89
2018-02-22T02:53:27.389Z,1018.89
2018-02-22T02:54:27.401Z,1018.89
2018-02-22T02:55:27.413Z,1018.90
2018-02-22T02:56:27.426Z,1018.90
2018-02-22T02:57:27.440Z,1018.86
2018-02-22T02:58:27.458Z,1018.88
2018-02-22T02:59:27.465Z,1018.87
2018-02-22T03:00:27.476Z,1018.88
2018-02-22T03:01:27.489Z,1018.88
2018-02-22T03:02:27.501Z,1018.92
2018-02-22T03:03:27.514Z,1018.88
2018-02-22T03:04:27.526Z,1018.90
2018-02-22T03:05:27.538Z,1018.92
2018-02-22T03:06:27.552Z,1018.87
2018-02-22T03:07:27.564Z,1018.85
2018-02-22T03:08:27.576Z,1018.87
2018-02-22T03:09:27.589Z,1018.79
2018-02-22T03:10:27.601Z,1018.85
2018-02-22T03:11:27.615Z,1018.86
2018-02-22T03:12:27.628Z,1018.82
2018-02-22T03:13:27.639Z,1018.84
2018-02-22T03:14:27.652Z,1018.84
2018-02-22T03:15:27.673Z,1018.83
2018-02-22T03:16:27.680Z,1018.80
2018-02-22T03:17:27.690Z,1018.83
2018-02-22T03:18:27.703Z,1018.84
2018-02-22T03:19:27.715Z,1018.83
2018-02-22T03:20:27.728Z,1018.82
2018-02-22T03:21:27.743Z,1018.81
2018-02-22T03:22:27.753Z,1018.83
2018-02-22T03:23:27.766Z,1018.78
2018-02-22T03:24:27.782Z,1018.88
2018-02-22T03:25:27.790Z,1018.82
2018-02-22T03:26:27.804Z,1018.83
2018-02-22T03:27:27.817Z,1018.74
2018-02-22T03:28:27.829Z,1018.77
2018-02-22T03:29:27.842Z,1018.77
2018-02-22T03:30:27.855Z,1018.76
2018-02-22T03:31:27.871Z,1018.75
2018-02-22T03:32:27.880Z,1018.74
2018-02-22T03:33:27.893Z,1018.74
2018-02-22T03:34:27.905Z,1018.71
2018-02-22T03:35:27.917Z,1018.73
2018-02-22T03:36:27.932Z,1018.75
2018-02-22T03:37:27.942Z,1018.76
2018-02-22T03:38:27.956Z,1018.80
2018-02-22T03:39:27.970Z,1018.77
2018-02-22T03:40:27.981Z,1018.74
2018-02-22T03:41:27.994Z,1018.73
2018-02-22T03:42:28.007Z,1018.70
2018-02-22T03:43:28.019Z,1018.71
2018-02-22T03:44:28.034Z,1018.75
2018-02-22T03:45:28.045Z,1018.80
2018-02-22T03:46:28.056Z,1018.77
2018-02-22T03:47:28.070Z,1018.76
2018-02-22T03:48:28.083Z,1018.77
2018-02-22T03:49:28.095Z,1018.75
2018-02-22T03:50:28.108Z,1018.77
2018-02-22T03:51:28.121Z,1018.76
2018-02-22T03:52:28.134Z,1018.77
2018-02-22T03:53:28.145Z,1018.75
2018-02-22T03:54:28.214Z,1018.76
2018-02-22T03:55:28.171Z,1018.74
2018-02-22T03:56:28.185Z,1018.72
2018-02-22T03:57:28.197Z,1018.73
2018-02-22T03:58:28.209Z,1018.72
2018-02-22T03:59:28.222Z,1018.70
2018-02-22T04:00:28.235Z,1018.74
2018-02-22T04:01:28.249Z,1018.72
2018-02-22T04:02:28.259Z,1018.75
2018-02-22T04:03:28.272Z,1018.70
2018-02-22T04:04:28.285Z,1018.71
2018-02-22T04:05:28.297Z,1018.75
2018-02-22T04:06:28.310Z,1018.69
2018-02-22T04:07:28.323Z,1018.72
2018-02-22T04:08:28.336Z,1018.80
2018-02-22T04:09:28.347Z,1018.79
2018-02-22T04:10:28.360Z,1018.79
2018-02-22T04:11:28.373Z,1018.76
2018-02-22T04:12:28.385Z,1018.78
2018-02-22T04:13:28.398Z,1018.77
2018-02-22T04:14:28.410Z,1018.79
2018-02-22T04:15:28.422Z,1018.80
2018-02-22T04:16:28.436Z,1018.84
2018-02-22T04:17:28.447Z,1018.83
2018-02-22T04:18:28.461Z,1018.84
2018-02-22T04:19:28.474Z,1018.82
2018-02-22T04:20:28.487Z,1018.84
2018-02-22T04:21:28.498Z,1018.86
2018-02-22T04:22:28.510Z,1018.82
2018-02-22T04:23:28.543Z,1018.84
2018-02-22T04:24:28.536Z,1018.85
2018-02-22T04:25:28.549Z,1018.87
2018-02-22T04:26:28.565Z,1018.84
2018-02-22T04:27:28.575Z,1018.85
2018-02-22T04:28:28.588Z,1018.89
2018-02-22T04:29:28.599Z,1018.89
2018-02-22T04:30:28.611Z,1018.94
2018-02-22T04:31:28.625Z,1018.89
2018-02-22T04:32:28.641Z,1018.91
2018-02-22T04:33:28.650Z,1018.92
2018-02-22T04:34:28.661Z,1018.95
2018-02-22T04:35:28.674Z,1018.89
2018-02-22T04:36:28.696Z,1018.94
2018-02-22T04:37:28.699Z,1018.92
2018-02-22T04:38:28.712Z,1018.92
2018-02-22T04:39:28.725Z,1018.94
2018-02-22T04:40:28.737Z,1018.89
2018-02-22T04:41:28.751Z,1018.93
2018-02-22T04:42:28.762Z,1018.94
2018-02-22T04:43:28.776Z,1018.94
2018-02-22T04:44:28.788Z,1018.94
2018-02-22T04:45:28.800Z,1018.93
2018-02-22T04:46:28.813Z,1018.93
2018-02-22T04:47:28.826Z,1018.91
2018-02-22T04:48:28.839Z,1018.94
2018-02-22T04:49:28.850Z,1018.91
2018-02-22T04:50:28.916Z,1018.94
2018-02-22T04:51:28.876Z,1018.89
2018-02-22T04:52:28.889Z,1018.90
2018-02-22T04:53:28.901Z,1018.88
2018-02-22T04:54:28.914Z,1018.89
2018-02-22T04:55:28.926Z,1018.85
2018-02-22T04:56:28.939Z,1018.86
2018-02-22T04:57:28.950Z,1018.88
2018-02-22T04:58:28.963Z,1018.87
2018-02-22T04:59:28.976Z,1018.87
2018-02-22T05:00:28.988Z,1018.86
2018-02-22T05:01:29.000Z,1018.81
2018-02-22T05:02:29.018Z,1018.85
2018-02-22T05:03:29.027Z,1018.88
2018-02-22T05:04:29.040Z,1018.85
2018-02-22T05:05:29.052Z,1018.86
2018-02-22T05:06:29.064Z,1018.83
2018-02-22T05:07:29.076Z,1018.82
2018-02-22T05:08:29.090Z,1018.82
2018-02-22T05:09:29.102Z,1018.88
2018-02-22T05:10:29.118Z,1018.91
2018-02-22T05:11:29.127Z,1018.95
2018-02-22T05:12:29.141Z,1018.94
2018-02-22T05:13:29.152Z,1018.93
2018-02-22T05:14:29.165Z,1018.99
2018-02-22T05:15:29.177Z,1018.95
2018-02-22T05:16:29.190Z,1018.96
2018-02-22T05:17:29.202Z,1018.98
2018-02-22T05:18:29.215Z,1018.98
2018-02-22T05:19:29.227Z,1018.99
2018-02-22T05:20:29.240Z,1019.00
2018-02-22T05:21:29.255Z,1018.95
2018-02-22T05:22:29.264Z,1018.96
2018-02-22T05:23:29.277Z,1018.99
2018-02-22T05:24:29.290Z,1019.00
2018-02-22T05:25:29.328Z,1018.95
2018-02-22T05:26:29.314Z,1018.97
2018-02-22T05:27:29.327Z,1019.02
2018-02-22T05:28:29.341Z,1018.98
2018-02-22T05:29:29.722Z,1018.98
2018-02-22T05:30:29.365Z,1018.99
2018-02-22T05:31:29.377Z,1019.04
2018-02-22T05:32:29.389Z,1019.00
2018-02-22T05:33:29.402Z,1019.04
2018-02-22T05:34:29.415Z,1019.05
2018-02-22T05:35:29.427Z,1019.07
2018-02-22T05:36:29.439Z,1019.04
2018-02-22T05:37:29.451Z,1019.02
2018-02-22T05:38:29.463Z,1019.03
2018-02-22T05:39:29.479Z,1019.03
2018-02-22T05:40:29.489Z,1019.05
2018-02-22T05:41:29.500Z,1019.04
2018-02-22T05:42:29.565Z,1019.03
2018-02-22T05:43:29.526Z,1019.01
2018-02-22T05:44:29.539Z,1019.05
2018-02-22T05:45:29.550Z,1019.04
2018-02-22T05:46:29.564Z,1019.04
2018-02-22T05:47:29.576Z,1019.05
2018-02-22T05:48:29.589Z,1019.05
2018-02-22T05:49:29.601Z,1018.97
2018-02-22T05:50:29.616Z,1018.99
2018-02-22T05:51:29.626Z,1019.00
2018-02-22T05:52:29.639Z,1019.01
2018-02-22T05:53:29.650Z,1019.03
2018-02-22T05:54:29.663Z,1019.00
2018-02-22T05:55:29.676Z,1019.05
2018-02-22T05:56:29.690Z,1019.08
2018-02-22T05:57:29.700Z,1019.07
2018-02-22T05:58:29.713Z,1019.04
2018-02-22T05:59:29.724Z,1019.05
2018-02-22T06:00:29.738Z,1019.06
2018-02-22T06:01:29.750Z,1019.07
2018-02-22T06:02:29.766Z,1019.03
2018-02-22T06:03:29.776Z,1019.05
2018-02-22T06:04:29.791Z,1019.06
2018-02-22T06:05:29.800Z,1019.04
2018-02-22T06:06:29.812Z,1019.05
2018-02-22T06:07:29.824Z,1019.06
2018-02-22T06:08:29.838Z,1019.04
2018-02-22T06:09:29.852Z,1019.11
2018-02-22T06:10:29.863Z,1019.09
2018-02-22T06:11:29.875Z,1019.07
2018-02-22T06:12:29.888Z,1019.06
2018-02-22T06:13:29.899Z,1019.05
2018-02-22T06:14:29.912Z,1019.09
2018-02-22T06:15:29.927Z,1019.09
2018-02-22T06:16:29.938Z,1019.10
2018-02-22T06:17:29.950Z,1019.10
2018-02-22T06:18:29.962Z,1019.13
2018-02-22T06:19:29.975Z,1019.13
2018-02-22T06:20:29.987Z,1019.09
2018-02-22T06:21:29.999Z,1019.12
2018-02-22T06:22:30.012Z,1019.12
2018-02-22T06:23:30.024Z,1019.14
2018-02-22T06:24:30.039Z,1019.12
2018-02-22T06:25:30.048Z,1019.15
2018-02-22T06:26:30.060Z,1019.13
2018-02-22T06:27:30.074Z,1019.14
2018-02-22T06:28:30.093Z,1019.13
2018-02-22T06:29:30.098Z,1019.12
2018-02-22T06:30:30.112Z,1019.16
2018-02-22T06:31:30.124Z,1019.17
2018-02-22T06:32:30.136Z,1019.18
2018-02-22T06:33:30.148Z,1019.15
2018-02-22T06:34:30.163Z,1019.19
2018-02-22T06:35:30.182Z,1019.18
2018-02-22T06:36:30.187Z,1019.16
2018-02-22T06:37:30.198Z,1019.18
2018-02-22T06:38:30.212Z,1019.21
2018-02-22T06:39:30.224Z,1019.22
2018-02-22T06:40:30.241Z,1019.21
2018-02-22T06:41:30.247Z,1019.19
2018-02-22T06:42:30.260Z,1019.26
2018-02-22T06:43:30.274Z,1019.22
2018-02-22T06:44:30.286Z,1019.28
2018-02-22T06:45:30.298Z,1019.28
2018-02-22T06:46:30.312Z,1019.25
2018-02-22T06:47:30.324Z,1019.28
2018-02-22T06:48:30.336Z,1019.28
2018-02-22T06:49:30.348Z,1019.24
2018-02-22T06:50:30.360Z,1019.30
2018-02-22T06:51:30.373Z,1019.28
2018-02-22T06:52:30.407Z,1019.32
2018-02-22T06:53:30.398Z,1019.28
2018-02-22T06:54:30.412Z,1019.27
2018-02-22T06:55:30.425Z,1019.32
2018-02-22T06:56:30.436Z,1019.34
2018-02-22T06:57:30.487Z,1019.33
2018-02-22T06:58:30.461Z,1019.31
2018-02-22T06:59:30.474Z,1019.31
2018-02-22T07:00:30.487Z,1019.33
2018-02-22T07:01:30.498Z,1019.30
2018-02-22T07:02:30.511Z,1019.35
2018-02-22T07:03:30.524Z,1019.31
2018-02-22T07:04:30.536Z,1019.32
2018-02-22T07:05:30.548Z,1019.35
2018-02-22T07:06:30.561Z,1019.34
2018-02-22T07:07:30.573Z,1019.35
2018-02-22T07:08:30.586Z,1019.37
2018-02-22T07:09:30.597Z,1019.38
2018-02-22T07:10:30.612Z,1019.36
2018-02-22T07:11:30.623Z,1019.35
2018-02-22T07:12:30.635Z,1019.32
2018-02-22T07:13:30.648Z,1019.36
2018-02-22T07:14:30.660Z,1019.34
2018-02-22T07:15:30.675Z,1019.36
2018-02-22T07:16:30.686Z,1019.37
2018-02-22T07:17:30.698Z,1019.36
2018-02-22T07:18:30.709Z,1019.37
2018-02-22T07:19:30.724Z,1019.35
2018-02-22T07:20:30.777Z,1019.41
2018-02-22T07:21:30.747Z,1019.38
2018-02-22T07:22:30.760Z,1019.41
2018-02-22T07:23:30.774Z,1019.39
2018-02-22T07:24:30.785Z,1019.44
2018-02-22T07:25:30.798Z,1019.41
2018-02-22T07:26:30.810Z,1019.42
2018-02-22T07:27:30.823Z,1019.41
2018-02-22T07:28:30.836Z,1019.41
2018-02-22T07:29:30.848Z,1019.42
2018-02-22T07:30:30.860Z,1019.43
2018-02-22T07:31:30.873Z,1019.49
2018-02-22T07:32:30.886Z,1019.48
2018-02-22T07:33:30.900Z,1019.47
2018-02-22T07:34:30.910Z,1019.51
2018-02-22T07:35:30.924Z,1019.48
2018-02-22T07:36:30.938Z,1019.49
2018-02-22T07:37:30.947Z,1019.46
2018-02-22T07:38:30.961Z,1019.48
2018-02-22T07:39:30.974Z,1019.53
2018-02-22T07:40:30.988Z,1019.57
2018-02-22T07:41:30.999Z,1019.49
2018-02-22T07:42:31.012Z,1019.51
2018-02-22T07:43:31.024Z,1019.54
2018-02-22T07:44:31.039Z,1019.52
2018-02-22T07:45:31.050Z,1019.51
2018-02-22T07:46:31.063Z,1019.51
2018-02-22T07:47:31.076Z,1019.54
2018-02-22T07:48:31.088Z,1019.55
2018-02-22T07:49:31.101Z,1019.51
2018-02-22T07:50:31.113Z,1019.48
2018-02-22T07:51:31.126Z,1019.51
2018-02-22T07:52:31.140Z,1019.52
2018-02-22T07:53:31.154Z,1019.56
2018-02-22T07:54:31.164Z,1019.54
2018-02-22T07:55:31.178Z,1019.57
2018-02-22T07:56:31.190Z,1019.59
2018-02-22T07:57:31.203Z,1019.57
2018-02-22T07:58:31.216Z,1019.56
2018-02-22T07:59:31.228Z,1019.61
2018-02-22T08:00:31.243Z,1019.61
2018-02-22T08:01:31.255Z,1019.64
2018-02-22T08:02:31.268Z,1019.61
2018-02-22T08:03:31.281Z,1019.59
2018-02-22T08:04:31.294Z,1019.62
2018-02-22T08:05:31.307Z,1019.61
2018-02-22T08:06:31.319Z,1019.57
2018-02-22T08:07:31.334Z,1019.59
2018-02-22T08:08:31.347Z,1019.62
2018-02-22T08:09:31.359Z,1019.66
2018-02-22T08:10:31.381Z,1019.64
2018-02-22T08:11:31.390Z,1019.61
2018-02-22T08:12:31.400Z,1019.64
2018-02-22T08:13:31.425Z,1019.62
2018-02-22T08:14:31.425Z,1019.70
2018-02-22T08:15:31.437Z,1019.69
2018-02-22T08:16:31.453Z,1019.72
2018-02-22T08:17:31.463Z,1019.66
2018-02-22T08:18:31.475Z,1019.74
2018-02-22T08:19:31.489Z,1019.67
2018-02-22T08:20:31.566Z,1019.72
2018-02-22T08:21:31.515Z,1019.70
2018-02-22T08:22:31.561Z,1019.72
2018-02-22T08:23:31.560Z,1019.73
2018-02-22T08:24:31.568Z,1019.70
2018-02-22T08:25:31.570Z,1019.64
2018-02-22T08:26:31.589Z,1019.66
2018-02-22T08:27:31.600Z,1019.68
2018-02-22T08:28:31.608Z,1019.69
2018-02-22T08:29:31.639Z,1019.71
2018-02-22T08:30:31.641Z,1019.70
2018-02-22T08:31:31.650Z,1019.72
2018-02-22T08:32:31.660Z,1019.65
2018-02-22T08:33:31.673Z,1019.68
2018-02-22T08:34:31.686Z,1019.70
2018-02-22T08:35:31.699Z,1019.67
2018-02-22T08:36:31.720Z,1019.63
2018-02-22T08:37:31.761Z,1019.62
2018-02-22T08:38:31.747Z,1019.63
2018-02-22T08:39:31.765Z,1019.62
2018-02-22T08:40:31.769Z,1019.64
2018-02-22T08:41:31.787Z,1019.65
2018-02-22T08:42:31.808Z,1019.63
2018-02-22T08:43:31.825Z,1019.65
2018-02-22T08:44:31.822Z,1019.70
2018-02-22T08:45:31.890Z,1019.65
2018-02-22T08:46:31.845Z,1019.63
2018-02-22T08:47:31.868Z,1019.61
2018-02-22T08:48:31.870Z,1019.67
2018-02-22T08:49:31.884Z,1019.66
2018-02-22T08:50:31.903Z,1019.69
2018-02-22T08:51:31.919Z,1019.59
2018-02-22T08:52:31.935Z,1019.60
2018-02-22T08:53:31.951Z,1019.64
2018-02-22T08:54:31.951Z,1019.62
2018-02-22T08:55:31.966Z,1019.63
2018-02-22T08:56:31.984Z,1019.62
2018-02-22T08:57:32.003Z,1019.62
2018-02-22T08:58:32.013Z,1019.62
2018-02-22T08:59:32.035Z,1019.60
2018-02-22T09:00:32.032Z,1019.61
2018-02-22T09:01:32.051Z,1019.57
2018-02-22T09:02:32.065Z,1019.57
2018-02-22T09:03:32.076Z,1019.52
2018-02-22T09:04:32.091Z,1019.51
2018-02-22T09:05:32.149Z,1019.53
2018-02-22T09:06:32.123Z,1019.52
2018-02-22T09:07:32.135Z,1019.55
2018-02-22T09:08:32.145Z,1019.53
2018-02-22T09:09:32.162Z,1019.51
2018-02-22T09:10:32.205Z,1019.51
2018-02-22T09:11:32.209Z,1019.50
2018-02-22T09:12:32.290Z,1019.54
2018-02-22T09:13:32.213Z,1019.52
2018-02-22T09:14:32.228Z,1019.47
2018-02-22T09:15:32.234Z,1019.50
2018-02-22T09:16:32.277Z,1019.46
2018-02-22T09:17:32.429Z,1019.47
2018-02-22T09:18:32.346Z,1019.45
2018-02-22T09:19:32.425Z,1019.49
2018-02-22T09:20:32.375Z,1019.50
2018-02-22T09:21:32.317Z,1019.47
2018-02-22T09:22:32.366Z,1019.52
2018-02-22T09:23:32.431Z,1019.50
2018-02-22T09:24:32.361Z,1019.53
2018-02-22T09:25:32.421Z,1019.50
2018-02-22T09:26:32.396Z,1019.44
2018-02-22T09:27:32.416Z,1019.46
2018-02-22T09:28:32.423Z,1019.48
2018-02-22T09:29:32.440Z,1019.42
2018-02-22T09:30:32.542Z,1019.46
2018-02-22T09:31:32.468Z,1019.40
2018-02-22T09:32:35.297Z,1019.40
2018-02-22T09:33:32.481Z,1019.40
2018-02-22T09:34:32.580Z,1019.41
2018-02-22T09:35:32.525Z,1019.40
2018-02-22T09:36:32.545Z,1019.42
2018-02-22T09:37:32.540Z,1019.41
2018-02-22T09:38:32.556Z,1019.40
2018-02-22T09:39:32.586Z,1019.40
2018-02-22T09:40:32.671Z,1019.42
2018-02-22T09:41:32.599Z,1019.38
2018-02-22T09:42:32.610Z,1019.36
2018-02-22T09:43:32.626Z,1019.42
2018-02-22T09:44:32.642Z,1019.37
2018-02-22T09:45:32.660Z,1019.38
2018-02-22T09:46:32.743Z,1019.34
2018-02-22T09:47:32.685Z,1019.37
2018-02-22T09:48:32.725Z,1019.39
2018-02-22T09:49:32.719Z,1019.43
2018-02-22T09:50:32.766Z,1019.43
2018-02-22T09:51:32.782Z,1019.45
2018-02-22T09:52:32.760Z,1019.42
2018-02-22T09:53:32.765Z,1019.40
2018-02-22T09:54:32.786Z,1019.40
2018-02-22T09:55:32.793Z,1019.40
2018-02-22T09:56:32.813Z,1019.41
2018-02-22T09:57:32.830Z,1019.37
2018-02-22T09:58:32.840Z,1019.40
2018-02-22T09:59:32.858Z,1019.41
2018-02-22T10:00:32.867Z,1019.40
2018-02-22T10:01:32.882Z,1019.48
2018-02-22T10:02:32.896Z,1019.49
2018-02-22T10:03:32.928Z,1019.43
2018-02-22T10:04:32.924Z,1019.49
2018-02-22T10:05:32.940Z,1019.46
2018-02-22T10:06:32.963Z,1019.50
2018-02-22T10:07:32.968Z,1019.39
2018-02-22T10:08:33.030Z,1019.49
2018-02-22T10:09:32.996Z,1019.52
2018-02-22T10:10:33.109Z,1019.48
2018-02-22T10:11:33.039Z,1019.45
2018-02-22T10:12:33.041Z,1019.46
2018-02-22T10:13:33.060Z,1019.49
2018-02-22T10:14:33.069Z,1019.48
2018-02-22T10:15:33.086Z,1019.59
2018-02-22T10:16:33.106Z,1019.51
2018-02-22T10:17:33.113Z,1019.53
2018-02-22T10:18:33.129Z,1019.51
2018-02-22T10:19:33.142Z,1019.49
2018-02-22T10:20:33.159Z,1019.48
2018-02-22T10:21:33.171Z,1019.50
2018-02-22T10:22:33.186Z,1019.42
2018-02-22T10:23:33.210Z,1019.45
2018-02-22T10:24:33.216Z,1019.45
2018-02-22T10:25:33.231Z,1019.48
2018-02-22T10:26:33.245Z,1019.49
2018-02-22T10:27:33.263Z,1019.54
2018-02-22T10:28:33.278Z,1019.51
2018-02-22T10:29:33.296Z,1019.55
2018-02-22T10:30:33.304Z,1019.56
2018-02-22T10:31:33.327Z,1019.58
2018-02-22T10:32:33.335Z,1019.57
2018-02-22T10:33:33.349Z,1019.60
2018-02-22T10:34:33.392Z,1019.59
2018-02-22T10:35:33.405Z,1019.53
2018-02-22T10:36:33.396Z,1019.60
2018-02-22T10:37:33.423Z,1019.57
2018-02-22T10:38:33.425Z,1019.51
2018-02-22T10:39:33.439Z,1019.51
2018-02-22T10:40:33.454Z,1019.49
2018-02-22T10:41:33.468Z,1019.55
2018-02-22T10:42:33.484Z,1019.47
2018-02-22T10:43:33.499Z,1019.50
2018-02-22T10:44:33.514Z,1019.55
2018-02-22T10:45:33.533Z,1019.54
2018-02-22T10:46:33.544Z,1019.50
2018-02-22T10:47:33.558Z,1019.49
2018-02-22T10:48:33.577Z,1019.48
2018-02-22T10:49:33.587Z,1019.46
2018-02-22T10:50:33.607Z,1019.42
2018-02-22T10:51:33.626Z,1019.45
2018-02-22T10:52:33.635Z,1019.41
2018-02-22T10:53:33.668Z,1019.40
2018-02-22T10:54:33.752Z,1019.43
2018-02-22T10:55:33.679Z,1019.44
2018-02-22T10:56:33.692Z,1019.45
2018-02-22T10:57:33.707Z,1019.41
2018-02-22T10:58:33.722Z,1019.36
2018-02-22T10:59:33.741Z,1019.42
2018-02-22T11:00:33.752Z,1019.38
2018-02-22T11:01:33.767Z,1019.41
2018-02-22T11:02:33.783Z,1019.37
2018-02-22T11:03:33.798Z,1019.37
2018-02-22T11:04:33.813Z,1019.37
2018-02-22T11:05:33.828Z,1019.39
2018-02-22T11:06:33.843Z,1019.45
2018-02-22T11:07:33.861Z,1019.40
2018-02-22T11:08:33.875Z,1019.35
2018-02-22T11:09:33.889Z,1019.34
2018-02-22T11:10:33.903Z,1019.37
2018-02-22T11:11:33.920Z,1019.34
2018-02-22T11:12:33.939Z,1019.33
2018-02-22T11:13:33.949Z,1019.32
2018-02-22T11:14:33.969Z,1019.33
2018-02-22T11:15:33.980Z,1019.36
2018-02-22T11:16:33.995Z,1019.29
2018-02-22T11:17:34.009Z,1019.35
2018-02-22T11:18:34.026Z,1019.32
2018-02-22T11:19:34.041Z,1019.39
2018-02-22T11:20:34.056Z,1019.38
2018-02-22T11:21:34.070Z,1019.33
2018-02-22T11:22:34.092Z,1019.34
2018-02-22T11:23:34.101Z,1019.31
2018-02-22T11:24:34.117Z,1019.34
2018-02-22T11:25:34.131Z,1019.26
2018-02-22T11:26:34.147Z,1019.30
2018-02-22T11:27:34.162Z,1019.26
2018-02-22T11:28:34.178Z,1019.29
2018-02-22T11:29:34.192Z,1019.25
2018-02-22T11:30:34.208Z,1019.26
2018-02-22T11:31:34.225Z,1019.23
2018-02-22T11:32:34.239Z,1019.24
2018-02-22T11:33:34.254Z,1019.26
2018-02-22T11:34:34.269Z,1019.24
2018-02-22T11:35:34.285Z,1019.18
2018-02-22T11:36:34.300Z,1019.24
2018-02-22T11:37:34.314Z,1019.29
2018-02-22T11:38:34.347Z,1019.25
2018-02-22T11:39:34.345Z,1019.29
2018-02-22T11:40:34.362Z,1019.29
2018-02-22T11:41:34.379Z,1019.20
2018-02-22T11:42:34.392Z,1019.29
2018-02-22T11:43:34.407Z,1019.21
2018-02-22T11:44:34.423Z,1019.23
2018-02-22T11:45:34.437Z,1019.19
2018-02-22T11:46:34.454Z,1019.19
2018-02-22T11:47:34.468Z,1019.23
2018-02-22T11:48:34.487Z,1019.21
2018-02-22T11:49:34.498Z,1019.22
2018-02-22T11:50:34.514Z,1019.15
2018-02-22T11:51:34.530Z,1019.18
2018-02-22T11:52:34.545Z,1019.21
2018-02-22T11:53:34.560Z,1019.14
2018-02-22T11:54:34.576Z,1019.22
2018-02-22T11:55:34.591Z,1019.18
2018-02-22T11:56:34.607Z,1019.16
2018-02-22T11:57:34.622Z,1019.14
2018-02-22T11:58:34.637Z,1019.11
2018-02-22T11:59:34.656Z,1019.12
2018-02-22T12:00:34.667Z,1019.16
2018-02-22T12:01:34.682Z,1019.12
2018-02-22T12:02:34.700Z,1019.09
2018-02-22T12:03:34.714Z,1019.03
2018-02-22T12:04:34.728Z,1019.04
2018-02-22T12:05:34.797Z,1019.05